createdAt,value
2022-10-30T00:02:20.827Z,79.89
2022-10-30T00:04:51.638Z,79.71
2022-10-30T00:07:24.033Z,79.39
2022-10-30T00:09:53.813Z,80.31
2022-10-30T00:12:24.637Z,80.21
2022-10-30T00:14:54.470Z,80.14
2022-10-30T00:17:24.355Z,79.59
2022-10-30T00:19:55.209Z,79.18
2022-10-30T00:22:29.075Z,78.74
2022-10-30T00:24:59.858Z,78.45
2022-10-30T00:27:30.148Z,78.25
2022-10-30T00:30:00.003Z,78.48
2022-10-30T00:32:30.610Z,78.17
2022-10-30T00:35:01.468Z,78.25
2022-10-30T00:37:33.872Z,77.73
2022-10-30T00:40:03.659Z,78.05
2022-10-30T00:42:36.135Z,78.38
2022-10-30T00:45:08.323Z,78.17
2022-10-30T00:47:42.816Z,78.38
2022-10-30T00:50:17.997Z,78.15
2022-10-30T00:52:56.035Z,77.96
2022-10-30T00:55:30.267Z,77.64
2022-10-30T00:58:02.046Z,77.04
2022-10-30T01:00:33.545Z,76.84
2022-10-30T01:03:03.849Z,77.06
2022-10-30T01:05:36.370Z,76.75
2022-10-30T01:08:09.379Z,76.45
2022-10-30T01:10:39.340Z,77.01
2022-10-30T01:13:09.772Z,76.60
2022-10-30T01:15:44.249Z,76.72
2022-10-30T01:18:31.687Z,76.44
2022-10-30T01:21:15.756Z,76.63
2022-10-30T01:23:59.234Z,76.50
2022-10-30T01:26:44.361Z,76.71
2022-10-30T01:29:29.640Z,77.09
2022-10-30T01:32:17.255Z,76.97
2022-10-30T01:34:57.827Z,76.64
2022-10-30T01:37:35.251Z,76.55
2022-10-30T01:40:14.491Z,76.28
2022-10-30T01:42:55.249Z,75.57
2022-10-30T01:45:48.886Z,76.41
2022-10-30T01:48:41.950Z,76.77
2022-10-30T01:51:19.030Z,76.95
2022-10-30T01:53:59.278Z,76.85
2022-10-30T01:56:41.488Z,76.73
2022-10-30T01:59:18.125Z,77.07
2022-10-30T02:01:48.489Z,77.12
2022-10-30T02:04:19.106Z,77.00
2022-10-30T02:06:49.126Z,77.26
2022-10-30T02:09:19.645Z,77.41
2022-10-30T02:11:56.198Z,77.28
2022-10-30T02:14:31.339Z,77.22
2022-10-30T02:17:03.538Z,77.04
2022-10-30T02:19:33.324Z,77.32
2022-10-30T02:22:08.383Z,77.01
2022-10-30T02:24:38.342Z,76.86
2022-10-30T02:27:09.980Z,76.62
2022-10-30T02:29:42.942Z,76.67
2022-10-30T02:32:12.691Z,76.49
2022-10-30T02:34:43.057Z,76.49
2022-10-30T02:37:15.469Z,76.49
2022-10-30T02:39:45.482Z,76.91
2022-10-30T02:42:15.194Z,76.58
2022-10-30T02:44:45.076Z,77.10
2022-10-30T02:47:15.105Z,76.97
2022-10-30T02:49:44.891Z,77.01
2022-10-30T02:52:17.264Z,77.08
2022-10-30T02:54:47.049Z,76.99
2022-10-30T02:57:16.896Z,76.87
2022-10-30T02:59:47.709Z,77.17
2022-10-30T03:02:17.821Z,77.52
2022-10-30T03:04:47.667Z,77.50
2022-10-30T03:07:19.995Z,77.20
2022-10-30T03:09:49.739Z,77.22
2022-10-30T03:12:19.464Z,77.24
2022-10-30T03:14:49.267Z,77.67
2022-10-30T03:17:19.188Z,77.81
2022-10-30T03:19:51.561Z,78.00
2022-10-30T03:22:23.906Z,78.28
2022-10-30T03:24:53.961Z,78.39
2022-10-30T03:27:23.787Z,78.30
2022-10-30T03:29:53.955Z,78.38
2022-10-30T03:34:56.712Z,79.38
2022-10-30T03:37:29.055Z,78.97
2022-10-30T03:39:58.842Z,79.28
2022-10-30T03:42:28.626Z,79.33
2022-10-30T03:44:58.373Z,79.47
2022-10-30T03:47:28.105Z,79.70
2022-10-30T03:49:58.146Z,79.31
2022-10-30T03:52:30.709Z,79.93
2022-10-30T03:55:00.700Z,80.03
2022-10-30T03:57:30.563Z,79.49
2022-10-30T04:00:16.268Z,79.64
2022-10-30T04:02:57.094Z,79.88
2022-10-30T04:05:29.053Z,79.62
2022-10-30T04:08:04.273Z,79.75
2022-10-30T04:10:38.475Z,79.80
2022-10-30T04:13:14.163Z,79.95
2022-10-30T04:15:56.151Z,79.61
2022-10-30T04:18:27.524Z,79.99
2022-10-30T04:20:58.205Z,80.08
2022-10-30T04:23:30.771Z,80.52
2022-10-30T04:26:03.053Z,80.64
2022-10-30T04:28:32.870Z,80.36
2022-10-30T04:31:02.913Z,80.58
2022-10-30T04:33:34.065Z,80.04
2022-10-30T04:36:04.379Z,80.25
2022-10-30T04:38:37.473Z,80.45
2022-10-30T04:41:09.548Z,80.93
2022-10-30T04:43:55.586Z,80.69
2022-10-30T04:46:26.013Z,80.72
2022-10-30T04:48:58.208Z,81.09
2022-10-30T04:51:28.002Z,81.08
2022-10-30T04:54:00.424Z,80.71
2022-10-30T04:56:33.077Z,81.59
2022-10-30T04:59:04.651Z,81.66
2022-10-30T05:01:34.640Z,81.51
2022-10-30T05:04:05.837Z,81.24
2022-10-30T05:06:36.501Z,81.41
2022-10-30T05:09:08.857Z,81.87
2022-10-30T05:11:41.747Z,81.94
2022-10-30T05:14:11.537Z,81.70
2022-10-30T05:16:41.314Z,82.40
2022-10-30T05:19:11.118Z,82.13
2022-10-30T05:21:43.421Z,81.68
2022-10-30T05:24:15.922Z,81.27
2022-10-30T05:26:47.415Z,81.11
2022-10-30T05:29:19.096Z,81.17
2022-10-30T05:31:48.917Z,81.43
2022-10-30T05:34:18.694Z,81.50
2022-10-30T05:36:51.822Z,81.45
2022-10-30T05:39:25.679Z,81.65
2022-10-30T05:41:55.553Z,81.93
2022-10-30T05:44:47.343Z,81.99
2022-10-30T05:47:17.540Z,82.08
2022-10-30T05:49:51.110Z,82.29
2022-10-30T05:52:23.945Z,82.57
2022-10-30T05:54:57.080Z,82.17
2022-10-30T05:57:37.886Z,82.63
2022-10-30T06:00:10.184Z,82.52
2022-10-30T06:02:46.237Z,82.43
2022-10-30T06:05:19.696Z,82.08
2022-10-30T06:07:50.620Z,82.42
2022-10-30T06:10:24.231Z,82.50
2022-10-30T06:13:09.923Z,82.46
2022-10-30T06:16:02.059Z,82.78
2022-10-30T06:18:52.142Z,82.89
2022-10-30T06:21:22.054Z,82.32
2022-10-30T06:24:28.310Z,82.91
2022-10-30T06:27:16.302Z,82.62
2022-10-30T06:29:46.178Z,82.40
2022-10-30T06:32:17.044Z,82.45
2022-10-30T06:34:48.134Z,82.35
2022-10-30T06:37:20.922Z,82.70
2022-10-30T06:39:54.738Z,82.69
2022-10-30T06:42:50.070Z,82.59
2022-10-30T06:45:42.739Z,83.05
2022-10-30T06:48:12.851Z,83.06
2022-10-30T06:50:47.820Z,82.93
2022-10-30T06:53:17.854Z,82.74
2022-10-30T06:55:47.815Z,83.13
2022-10-30T06:58:42.235Z,83.07
2022-10-30T07:01:32.007Z,83.17
2022-10-30T07:04:20.794Z,83.06
2022-10-30T07:06:51.804Z,82.77
2022-10-30T07:09:25.034Z,82.82
2022-10-30T07:11:57.050Z,83.22
2022-10-30T07:14:47.887Z,83.60
2022-10-30T07:17:25.631Z,83.72
2022-10-30T07:20:01.272Z,83.33
2022-10-30T07:22:33.351Z,83.22
2022-10-30T07:25:03.332Z,83.29
2022-10-30T07:27:47.814Z,83.26
2022-10-30T07:30:47.070Z,83.25
2022-10-30T07:33:39.757Z,83.47
2022-10-30T07:36:22.046Z,83.16
2022-10-30T07:39:06.854Z,83.15
2022-10-30T07:41:49.741Z,83.08
2022-10-30T07:44:45.906Z,83.55
2022-10-30T07:47:45.622Z,83.47
2022-10-30T07:50:28.214Z,83.41
2022-10-30T07:52:58.517Z,82.67
2022-10-30T07:55:32.122Z,82.24
2022-10-30T07:58:05.518Z,82.21
2022-10-30T08:00:55.254Z,82.57
2022-10-30T08:03:35.809Z,82.62
2022-10-30T08:06:22.925Z,82.59
2022-10-30T08:08:57.302Z,82.67
2022-10-30T08:11:32.497Z,81.94
2022-10-30T08:14:04.034Z,81.86
2022-10-30T08:16:34.150Z,81.83
2022-10-30T08:19:09.992Z,81.33
2022-10-30T08:21:39.905Z,81.24
2022-10-30T08:24:14.049Z,80.61
2022-10-30T08:26:53.842Z,81.15
2022-10-30T08:29:25.622Z,81.86
2022-10-30T08:31:56.667Z,82.14
2022-10-30T08:34:32.450Z,81.76
2022-10-30T08:37:07.976Z,81.92
2022-10-30T08:39:38.937Z,81.73
2022-10-30T08:42:34.611Z,81.35
2022-10-30T08:45:10.625Z,80.84
2022-10-30T08:48:03.903Z,81.04
2022-10-30T08:50:46.722Z,80.53
2022-10-30T08:53:21.711Z,79.91
2022-10-30T08:55:54.257Z,79.25
2022-10-30T08:58:30.777Z,79.11
2022-10-30T09:01:01.755Z,78.44
2022-10-30T09:03:50.162Z,78.03
2022-10-30T09:06:45.360Z,78.26
2022-10-30T09:09:36.770Z,77.38
2022-10-30T09:12:07.965Z,77.86
2022-10-30T09:14:44.060Z,77.94
2022-10-30T09:17:15.952Z,78.12
2022-10-30T09:22:45.507Z,77.76
2022-10-30T09:25:17.584Z,76.62
2022-10-30T09:28:07.111Z,77.08
2022-10-30T09:30:58.969Z,76.41
2022-10-30T09:33:32.897Z,76.27
2022-10-30T09:36:35.891Z,76.87
2022-10-30T09:39:08.442Z,76.35
2022-10-30T09:41:56.631Z,74.79
2022-10-30T09:44:38.143Z,74.62
2022-10-30T09:47:24.081Z,73.84
2022-10-30T09:50:19.218Z,73.66
2022-10-30T09:53:00.531Z,73.75
2022-10-30T09:55:41.537Z,73.72
2022-10-30T09:58:30.868Z,72.97
2022-10-30T10:01:11.197Z,73.26
2022-10-30T10:03:59.267Z,72.92
2022-10-30T10:06:53.430Z,73.08
2022-10-30T10:09:47.562Z,73.01
2022-10-30T10:12:43.055Z,72.90
2022-10-30T10:15:19.834Z,73.25
2022-10-30T10:17:49.797Z,72.75
2022-10-30T10:20:29.666Z,72.16
2022-10-30T10:23:05.193Z,72.17
2022-10-30T10:25:35.568Z,72.18
2022-10-30T10:28:20.125Z,71.35
2022-10-30T10:30:58.329Z,72.26
2022-10-30T10:33:43.002Z,71.26
2022-10-30T10:36:26.617Z,70.86
2022-10-30T10:39:19.159Z,70.75
2022-10-30T10:42:12.020Z,70.85
2022-10-30T10:44:57.310Z,71.32
2022-10-30T10:48:00.990Z,71.07
2022-10-30T10:50:35.416Z,70.77
2022-10-30T10:53:13.335Z,69.83
2022-10-30T10:55:44.727Z,70.08
2022-10-30T10:58:21.795Z,70.38
2022-10-30T11:00:56.563Z,69.96
2022-10-30T11:03:32.915Z,69.95
2022-10-30T11:06:13.714Z,69.83
2022-10-30T11:08:45.802Z,69.94
2022-10-30T11:11:15.649Z,69.62
2022-10-30T11:13:46.772Z,69.67
2022-10-30T11:16:30.297Z,69.14
2022-10-30T11:19:05.591Z,69.12
2022-10-30T11:21:41.118Z,68.35
2022-10-30T11:24:29.126Z,68.77
2022-10-30T11:27:00.567Z,68.71
2022-10-30T11:29:32.285Z,67.64
2022-10-30T11:32:07.799Z,68.28
2022-10-30T11:34:39.508Z,68.51
2022-10-30T11:37:33.289Z,67.58
2022-10-30T11:40:10.338Z,67.40
2022-10-30T11:42:41.902Z,68.10
2022-10-30T11:45:18.673Z,68.15
2022-10-30T11:47:52.033Z,68.45
2022-10-30T11:50:23.782Z,68.06
2022-10-30T11:52:58.207Z,67.78
2022-10-30T11:55:36.236Z,66.89
2022-10-30T11:58:10.003Z,67.80
2022-10-30T12:00:44.849Z,66.51
2022-10-30T12:03:32.598Z,66.73
2022-10-30T12:06:19.853Z,67.04
2022-10-30T12:09:06.599Z,67.10
2022-10-30T12:11:39.308Z,67.95
2022-10-30T12:14:19.591Z,67.21
2022-10-30T12:16:51.474Z,67.18
2022-10-30T12:19:26.346Z,67.19
2022-10-30T12:21:58.772Z,66.73
2022-10-30T12:24:33.892Z,66.85
2022-10-30T12:27:19.724Z,66.73
2022-10-30T12:30:09.827Z,66.65
2022-10-30T12:32:50.766Z,66.16
2022-10-30T12:35:45.666Z,65.25
2022-10-30T12:38:25.042Z,66.08
2022-10-30T12:41:05.031Z,66.59
2022-10-30T12:43:37.975Z,67.14
2022-10-30T12:46:23.802Z,65.98
2022-10-30T12:49:01.675Z,66.49
2022-10-30T12:51:41.818Z,66.89
2022-10-30T12:54:22.013Z,67.04
2022-10-30T12:56:58.334Z,66.62
2022-10-30T12:59:35.768Z,66.72
2022-10-30T13:02:21.169Z,67.13
2022-10-30T13:04:55.599Z,66.33
2022-10-30T13:07:32.831Z,65.08
2022-10-30T13:10:13.053Z,64.62
2022-10-30T13:12:54.609Z,64.78
2022-10-30T13:15:28.684Z,65.26
2022-10-30T13:18:01.083Z,65.66
2022-10-30T13:20:37.417Z,65.89
2022-10-30T13:23:14.570Z,65.87
2022-10-30T13:25:55.041Z,65.48
2022-10-30T13:28:30.694Z,65.99
2022-10-30T13:31:09.988Z,66.53
2022-10-30T13:33:45.755Z,66.75
2022-10-30T13:36:24.060Z,66.24
2022-10-30T13:39:03.418Z,66.36
2022-10-30T13:41:42.705Z,66.25
2022-10-30T13:44:29.093Z,65.20
2022-10-30T13:47:12.871Z,65.63
2022-10-30T13:50:07.518Z,65.56
2022-10-30T13:52:43.287Z,65.20
2022-10-30T13:55:20.929Z,66.27
2022-10-30T13:57:55.424Z,66.34
2022-10-30T14:00:32.651Z,66.76
2022-10-30T14:03:19.836Z,66.67
2022-10-30T14:05:57.110Z,66.08
2022-10-30T14:08:36.359Z,66.08
2022-10-30T14:11:15.447Z,65.29
2022-10-30T14:13:54.025Z,66.20
2022-10-30T14:16:39.844Z,65.41
2022-10-30T14:19:12.282Z,65.88
2022-10-30T14:21:54.441Z,65.86
2022-10-30T14:24:30.767Z,66.32
2022-10-30T14:27:21.439Z,66.41
2022-10-30T14:29:54.291Z,66.38
2022-10-30T14:32:41.994Z,66.25
2022-10-30T14:35:39.864Z,66.10
2022-10-30T14:38:29.730Z,66.12
2022-10-30T14:41:27.136Z,66.15
2022-10-30T14:44:17.870Z,66.38
2022-10-30T14:47:02.108Z,66.27
2022-10-30T14:49:49.820Z,65.84
2022-10-30T14:52:32.252Z,65.59
2022-10-30T14:55:21.242Z,65.97
2022-10-30T14:57:55.961Z,66.45
2022-10-30T15:00:42.211Z,66.49
2022-10-30T15:03:29.117Z,66.88
2022-10-30T15:06:03.236Z,67.53
2022-10-30T15:08:54.334Z,68.60
2022-10-30T15:12:00.399Z,69.40
2022-10-30T15:17:33.065Z,71.17
2022-10-30T15:20:07.522Z,71.64
2022-10-30T15:22:43.623Z,70.98
2022-10-30T15:25:20.563Z,71.35
2022-10-30T15:27:55.502Z,71.11
2022-10-30T15:30:28.709Z,71.46
2022-10-30T15:33:02.759Z,71.49
2022-10-30T15:35:39.673Z,72.06
2022-10-30T15:38:12.909Z,72.72
2022-10-30T15:40:44.859Z,73.58
2022-10-30T15:43:19.569Z,73.28
2022-10-30T15:45:52.185Z,74.26
2022-10-30T15:48:29.281Z,74.36
2022-10-30T15:51:03.876Z,74.79
2022-10-30T15:53:41.123Z,75.30
2022-10-30T15:56:20.658Z,75.87
2022-10-30T15:58:54.442Z,75.97
2022-10-30T16:01:28.656Z,76.23
2022-10-30T16:04:01.485Z,77.44
2022-10-30T16:06:32.956Z,77.66
2022-10-30T16:09:06.379Z,77.72
2022-10-30T16:11:36.406Z,78.23
2022-10-30T16:14:10.758Z,78.36
2022-10-30T16:16:40.693Z,78.44
2022-10-30T16:19:27.948Z,78.25
2022-10-30T16:22:01.268Z,78.94
2022-10-30T16:24:35.831Z,79.16
2022-10-30T16:27:08.088Z,79.37
2022-10-30T16:29:38.717Z,79.98
2022-10-30T16:32:15.716Z,79.22
2022-10-30T16:34:50.431Z,79.36
2022-10-30T16:37:23.657Z,80.22
2022-10-30T16:39:55.883Z,80.41
2022-10-30T16:42:28.760Z,80.71
2022-10-30T16:45:29.172Z,80.14
2022-10-30T16:48:08.341Z,81.27
2022-10-30T16:50:42.520Z,81.43
2022-10-30T16:53:21.156Z,80.99
2022-10-30T16:55:51.404Z,81.45
2022-10-30T16:58:27.868Z,81.57
2022-10-30T17:01:04.589Z,81.77
2022-10-30T17:03:39.181Z,82.11
2022-10-30T17:06:30.119Z,82.40
2022-10-30T17:09:02.286Z,83.96
2022-10-30T17:11:42.080Z,79.42
2022-10-30T17:14:21.606Z,80.80
2022-10-30T17:16:56.932Z,81.73
2022-10-30T17:19:47.388Z,82.43
2022-10-30T17:22:23.142Z,83.36
2022-10-30T17:24:53.158Z,83.70
2022-10-30T17:27:43.545Z,83.22
2022-10-30T17:30:35.822Z,84.02
2022-10-30T17:33:25.884Z,83.62
2022-10-30T17:35:56.695Z,84.68
2022-10-30T17:38:29.561Z,85.02
2022-10-30T17:41:00.590Z,85.09
2022-10-30T17:43:33.547Z,85.50
2022-10-30T17:46:07.070Z,85.67
2022-10-30T17:48:36.912Z,85.45
2022-10-30T17:51:07.049Z,86.30
2022-10-30T17:53:41.914Z,85.78
2022-10-30T17:56:18.781Z,85.96
2022-10-30T17:58:51.775Z,86.11
2022-10-30T18:01:25.175Z,86.43
2022-10-30T18:03:58.081Z,86.20
2022-10-30T18:06:30.644Z,86.23
2022-10-30T18:09:03.162Z,86.29
2022-10-30T18:11:34.022Z,86.33
2022-10-30T18:14:04.978Z,86.17
2022-10-30T18:16:34.870Z,85.97
2022-10-30T18:19:13.846Z,85.94
2022-10-30T18:21:45.308Z,86.55
2022-10-30T18:24:18.224Z,86.27
2022-10-30T18:26:48.317Z,86.79
2022-10-30T18:29:19.269Z,87.23
2022-10-30T18:31:49.386Z,87.71
2022-10-30T18:34:22.318Z,88.06
2022-10-30T18:36:53.135Z,89.08
2022-10-30T18:39:25.662Z,88.89
2022-10-30T18:41:55.590Z,88.83
2022-10-30T18:44:26.509Z,88.49
2022-10-30T18:47:01.613Z,88.66
2022-10-30T18:49:33.580Z,88.84
2022-10-30T18:52:04.574Z,88.68
2022-10-30T18:54:38.094Z,88.44
2022-10-30T18:57:08.232Z,88.84
2022-10-30T18:59:39.321Z,88.73
2022-10-30T19:02:23.190Z,88.23
2022-10-30T19:04:55.286Z,88.80
2022-10-30T19:07:25.313Z,88.85
2022-10-30T19:09:59.568Z,88.67
2022-10-30T19:12:29.635Z,88.35
2022-10-30T19:15:02.990Z,87.89
2022-10-30T19:17:33.959Z,88.33
2022-10-30T19:20:04.874Z,88.25
2022-10-30T19:22:34.879Z,88.66
2022-10-30T19:25:19.882Z,88.13
2022-10-30T19:27:50.086Z,88.70
2022-10-30T19:30:22.823Z,88.81
2022-10-30T19:32:55.969Z,88.71
2022-10-30T19:35:28.287Z,89.14
2022-10-30T19:37:59.826Z,89.20
2022-10-30T19:40:39.535Z,88.93
2022-10-30T19:43:10.362Z,88.92
2022-10-30T19:45:40.269Z,88.96
2022-10-30T19:48:20.738Z,88.84
2022-10-30T19:50:55.594Z,88.81
2022-10-30T19:53:25.587Z,89.25
2022-10-30T19:55:59.969Z,89.04
2022-10-30T19:58:31.032Z,90.05
2022-10-30T20:01:02.047Z,89.70
2022-10-30T20:03:32.921Z,89.42
2022-10-30T20:06:05.834Z,89.55
2022-10-30T20:08:36.729Z,89.50
2022-10-30T20:11:11.052Z,89.92
2022-10-30T20:13:42.022Z,90.48
2022-10-30T20:16:16.169Z,90.99
2022-10-30T20:18:46.030Z,92.29
2022-10-30T20:21:16.480Z,92.13
2022-10-30T20:23:47.518Z,91.80
2022-10-30T20:26:26.946Z,91.21
2022-10-30T20:28:59.023Z,91.65
2022-10-30T20:31:28.994Z,91.40
2022-10-30T20:33:58.955Z,90.80
2022-10-30T20:36:28.953Z,90.58
2022-10-30T20:38:58.798Z,89.98
2022-10-30T20:41:32.575Z,89.77
2022-10-30T20:44:02.379Z,89.58
2022-10-30T20:46:34.543Z,89.38
2022-10-30T20:49:16.974Z,89.17
2022-10-30T20:51:49.633Z,89.45
2022-10-30T20:54:19.870Z,89.23
2022-10-30T20:56:54.355Z,88.98
2022-10-30T20:59:24.503Z,88.83
2022-10-30T21:01:54.363Z,88.72
2022-10-30T21:04:25.451Z,88.68
2022-10-30T21:06:56.257Z,88.63
2022-10-30T21:09:28.191Z,89.03
2022-10-30T21:12:01.921Z,88.80
2022-10-30T21:14:32.812Z,89.01
2022-10-30T21:17:03.683Z,88.88
2022-10-30T21:19:33.497Z,89.59
2022-10-30T21:22:03.400Z,89.44
2022-10-30T21:24:34.522Z,89.31
2022-10-30T21:27:08.929Z,88.67
2022-10-30T21:29:40.696Z,89.09
2022-10-30T21:32:11.649Z,88.78
2022-10-30T21:34:41.496Z,88.64
2022-10-30T21:37:11.272Z,88.61
2022-10-30T21:39:43.034Z,88.44
2022-10-30T21:42:18.542Z,88.39
2022-10-30T21:44:48.381Z,88.31
2022-10-30T21:47:21.989Z,88.30
2022-10-30T21:49:52.996Z,87.99
2022-10-30T21:52:28.879Z,87.80
2022-10-30T21:55:04.649Z,87.87
2022-10-30T21:57:38.126Z,87.58
2022-10-30T22:00:10.533Z,87.81
2022-10-30T22:02:41.471Z,88.13
2022-10-30T22:05:13.219Z,87.85
2022-10-30T22:07:43.085Z,88.02
2022-10-30T22:10:13.109Z,88.22
2022-10-30T22:12:47.487Z,88.15
2022-10-30T22:15:19.457Z,88.03
2022-10-30T22:17:50.273Z,87.97
2022-10-30T22:20:22.020Z,88.10
2022-10-30T22:22:51.849Z,88.05
2022-10-30T22:25:22.938Z,87.99
2022-10-30T22:27:55.303Z,87.88
2022-10-30T22:30:25.073Z,88.11
2022-10-30T22:32:56.050Z,87.29
2022-10-30T22:35:26.072Z,87.29
2022-10-30T22:38:00.318Z,87.19
2022-10-30T22:40:31.040Z,87.20
2022-10-30T22:43:05.734Z,87.51
2022-10-30T22:45:35.614Z,87.89
2022-10-30T22:48:08.059Z,88.01
2022-10-30T22:50:40.864Z,88.07
2022-10-30T22:53:11.725Z,88.48
2022-10-30T22:55:42.542Z,89.06
2022-10-30T22:58:15.983Z,89.46
2022-10-30T23:00:46.787Z,89.95
2022-10-30T23:03:17.726Z,89.97
2022-10-30T23:05:48.585Z,90.30
2022-10-30T23:08:21.946Z,90.32
2022-10-30T23:10:54.847Z,90.40
2022-10-30T23:13:27.828Z,90.90
2022-10-30T23:16:02.352Z,90.28
2022-10-30T23:18:32.442Z,91.16
2022-10-30T23:21:06.839Z,90.93
2022-10-30T23:23:37.728Z,90.58
2022-10-30T23:26:11.072Z,90.76
2022-10-30T23:28:44.873Z,90.65
2022-10-30T23:31:21.498Z,90.41
2022-10-30T23:33:51.588Z,90.40
2022-10-30T23:36:23.197Z,90.30
2022-10-30T23:38:55.580Z,89.82
2022-10-30T23:41:27.081Z,89.71
2022-10-30T23:44:02.914Z,89.62
2022-10-30T23:46:35.810Z,89.48
2022-10-30T23:49:07.193Z,89.57
2022-10-30T23:51:38.236Z,89.69
2022-10-30T23:54:08.988Z,89.44
2022-10-30T23:56:39.797Z,88.78
2022-10-30T23:59:12.683Z,89.21
